Main page
METAR-TAF:

METAR-TAF

Airports :

Odiham, England

RAF Odiham

latitude: 51-14N, longitude: 000-57W, elevation: 123 m

Current weather observation

The report was made 53 minutes ago, at 17:50 UTC
Wind 12 kt from the East/Northeast
Temperature 12°C
Humidity 54%
Pressure 1021 hPa
Visibility 10 km or more
no clouds below 1500 m and no cumulonimbus

METAR: EGVO 261750Z 07012KT CAVOK 12/03 Q1021 BLU

Time: 19:43 (18:43 UTC)

Forecast

The report was made 26 hours and 3 minutes ago, at 16:40 UTC
Forecast valid from 25 at 18 UTC to 26 at 06 UTC
Wind 12 kt from the Northeast
Visibility 10 km or more
no clouds below 1500 m and no cumulonimbus

TAF: EGVO 251640Z 2518/2606 05012KT CAVOK

Weather observations and forecasts of more than 4000 airports (METAR and TAF reports).

The available stations are represented by yellow and red dots on the map.

Hover mouse over dot to see the name of the station.

Then click to see weather observations and forecasts.

To change the map : click on the green buttons with a black cross to zoom in, on the green button with a dash to zoom out, or on the green arrows for adjacent maps.


METAR-TAF: